Time;durP1;ratioP1;P1;durP2;ratioP2;P2;SDS_P1;SDS_P2;PMS_P1;PMS_P2;Temp;Humidity;BMP_temperature;BMP_pressure;BME280_temperature;BME280_humidity;BME280_pressure;Samples;Min_cycle;Max_cycle;Signal;HPM_P1;HPM_P2
2022/06/28 00:02:01;;;;;;;;;;;;;;;;;;4970023;28;127318;-64
2022/06/28 00:04:27;;;;;;;;;;;;;;;;;;4970825;28;130546;-64
2022/06/28 00:06:53;;;;;;;;;;;;;;;;;;4970470;28;125095;-64
2022/06/28 00:09:20;;;;;;;;;;;;;;;;;;4971645;28;123167;-63
2022/06/28 00:11:46;;;;;;;;;;;;;;;;;;4971866;28;112251;-63
2022/06/28 00:16:57;;;;;;;;;;;;;;;;;;4961517;28;123658;-65
2022/06/28 00:19:23;;;;;;;;;;;;;;;;;;4972748;28;120647;-63
2022/06/28 00:21:50;;;;;;;;;;;;;;;;;;4970366;28;123228;-63
2022/06/28 00:24:16;;;;;;;;;;;;;;;;;;4971313;28;110584;-63
2022/06/28 00:26:42;;;;;;;;;;;;;;;;;;4966307;28;137147;-63
2022/06/28 00:29:09;;;;;;;;;;;;;;;;;;4985962;28;106237;-63
2022/06/28 00:31:35;;;;;;;;;;;;;;;;;;4970615;28;137663;-63
2022/06/28 00:34:01;;;;;;;;;;;;;;;;;;4985561;28;109402;-63
2022/06/28 00:36:28;;;;;;;;;;;;;;;;;;4970666;28;123049;-64
2022/06/28 00:38:54;;;;;;;;;;;;;;;;;;4970295;28;133171;-64
2022/06/28 00:41:20;;;;;;;;;;;;;;;;;;4974613;28;111508;-64
2022/06/28 00:43:47;;;;;;;;;;;;;;;;;;4984348;28;125210;-64
2022/06/28 00:46:13;;;;;;;;;;;;;;;;;;4986575;28;107273;-64
2022/06/28 00:48:39;;;;;;;;;;;;;;;;;;4984654;28;121100;-64
2022/06/28 00:51:06;;;;;;;;;;;;;;;;;;4972221;28;107087;-64
2022/06/28 00:53:32;;;;;;;;;;;;;;;;;;4969293;28;136933;-64
2022/06/28 00:55:58;;;;;;;;;;;;;;;;;;4970701;28;107011;-64
2022/06/28 00:58:25;;;;;;;;;;;;;;;;;;4984343;28;130842;-65
2022/06/28 01:00:51;;;;;;;;;;;;;;;;;;4969822;28;127015;-66
2022/06/28 01:03:17;;;;;;;;;;;;;;;;;;4973509;28;119426;-64
2022/06/28 01:05:45;;;;;;;;;;;;;;;;;;4986289;28;108936;-64
2022/06/28 01:08:12;;;;;;;;;;;;;;;;;;4986106;28;106236;-64
2022/06/28 01:10:39;;;;;;;;;;;;;;;;;;4984654;28;111953;-64
2022/06/28 01:13:05;;;;;;;;;;;;;;;;;;4967490;28;137755;-63
2022/06/28 01:15:31;;;;;;;;;;;;;;;;;;4971273;28;106912;-63
2022/06/28 01:18:01;;;;;;;;;;;;;;;;;;4986235;28;108653;-64
2022/06/28 01:20:48;;;;;;;;;;;;;;;;;;4968793;28;107125;-64
2022/06/28 01:23:14;;;;;;;;;;;;;;;;;;4971573;28;106128;-64
2022/06/28 01:25:40;;;;;;;;;;;;;;;;;;4988552;28;108403;-63
2022/06/28 01:28:07;;;;;;;;;;;;;;;;;;4983807;28;106271;-64
2022/06/28 01:30:34;;;;;;;;;;;;;;;;;;4986573;28;106769;-64
2022/06/28 01:33:06;;;;;;;;;;;;;;;;;;4985279;28;108903;-64
2022/06/28 01:35:32;;;;;;;;;;;;;;;;;;4985619;28;106006;-64
2022/06/28 01:37:58;;;;;;;;;;;;;;;;;;4968642;28;111470;-64
2022/06/28 01:40:25;;;;;;;;;;;;;;;;;;4965854;28;109219;-63
2022/06/28 01:42:51;;;;;;;;;;;;;;;;;;4978864;28;120638;-66
2022/06/28 01:45:17;;;;;;;;;;;;;;;;;;4969160;28;135300;-64
2022/06/28 01:47:44;;;;;;;;;;;;;;;;;;4980288;28;106137;-64
2022/06/28 01:50:23;;;;;;;;;;;;;;;;;;4969130;28;106667;-64
2022/06/28 01:52:49;;;;;;;;;;;;;;;;;;4980419;28;114191;-64
2022/06/28 01:55:31;;;;;;;;;;;;;;;;;;4969240;28;106508;-65
2022/06/28 01:57:58;;;;;;;;;;;;;;;;;;4969395;28;106148;-64
2022/06/28 02:00:24;;;;;;;;;;;;;;;;;;4983898;28;123732;-64
2022/06/28 02:02:55;;;;;;;;;;;;;;;;;;4982584;28;108215;-64
2022/06/28 02:05:43;;;;;;;;;;;;;;;;;;4967082;28;107264;-64
2022/06/28 02:08:10;;;;;;;;;;;;;;;;;;4987992;28;108993;-64
2022/06/28 02:11:05;;;;;;;;;;;;;;;;;;4962023;28;106546;-64
2022/06/28 02:13:47;;;;;;;;;;;;;;;;;;4968358;28;109759;-64
2022/06/28 02:16:13;;;;;;;;;;;;;;;;;;4966918;28;112744;-64
2022/06/28 02:18:41;;;;;;;;;;;;;;;;;;4984546;28;106810;-64
2022/06/28 02:21:08;;;;;;;;;;;;;;;;;;4981269;28;109929;-64
2022/06/28 02:23:34;;;;;;;;;;;;;;;;;;4966162;28;106773;-64
2022/06/28 02:26:01;;;;;;;;;;;;;;;;;;4969466;28;107204;-64
2022/06/28 02:28:27;;;;;;;;;;;;;;;;;;4966476;28;135800;-64
2022/06/28 02:30:55;;;;;;;;;;;;;;;;;;4988611;28;106394;-64
2022/06/28 02:33:22;;;;;;;;;;;;;;;;;;4968748;28;107388;-64
2022/06/28 02:41:58;;;;;;;;;;;;;;;;;;4927601;28;136410;-64
2022/06/28 02:44:24;;;;;;;;;;;;;;;;;;4981005;28;123060;-64
2022/06/28 02:46:51;;;;;;;;;;;;;;;;;;4968256;28;115909;-64
2022/06/28 02:49:17;;;;;;;;;;;;;;;;;;4968768;28;127564;-64
2022/06/28 02:51:44;;;;;;;;;;;;;;;;;;4982889;28;106702;-64
2022/06/28 02:54:10;;;;;;;;;;;;;;;;;;4971154;28;135171;-64
2022/06/28 02:56:37;;;;;;;;;;;;;;;;;;4966417;28;125879;-63
2022/06/28 02:59:04;;;;;;;;;;;;;;;;;;4967712;28;130294;-64
2022/06/28 03:01:30;;;;;;;;;;;;;;;;;;4968625;28;135570;-66
2022/06/28 03:03:56;;;;;;;;;;;;;;;;;;4983305;28;110097;-64
2022/06/28 03:06:23;;;;;;;;;;;;;;;;;;4967330;28;107990;-65
2022/06/28 03:08:49;;;;;;;;;;;;;;;;;;4966245;28;135430;-63
2022/06/28 03:11:15;;;;;;;;;;;;;;;;;;4968740;28;107108;-63
2022/06/28 03:13:42;;;;;;;;;;;;;;;;;;4968230;28;135943;-63
2022/06/28 03:16:08;;;;;;;;;;;;;;;;;;4972098;28;112138;-65
2022/06/28 03:18:34;;;;;;;;;;;;;;;;;;4966829;28;116861;-63
2022/06/28 03:21:03;;;;;;;;;;;;;;;;;;4966770;28;131763;-63
2022/06/28 03:23:29;;;;;;;;;;;;;;;;;;4972793;28;106691;-63
2022/06/28 03:25:56;;;;;;;;;;;;;;;;;;4972952;28;129026;-64
2022/06/28 03:28:22;;;;;;;;;;;;;;;;;;4986803;28;113046;-64
2022/06/28 03:30:52;;;;;;;;;;;;;;;;;;4969864;28;106143;-64
2022/06/28 03:33:18;;;;;;;;;;;;;;;;;;4970590;28;107147;-63
2022/06/28 03:35:44;;;;;;;;;;;;;;;;;;4984839;28;131473;-63
2022/06/28 03:38:11;;;;;;;;;;;;;;;;;;4967008;28;110790;-65
2022/06/28 03:40:55;;;;;;;;;;;;;;;;;;4972157;28;106727;-64
2022/06/28 03:43:22;;;;;;;;;;;;;;;;;;4970423;28;107060;-64
2022/06/28 03:45:49;;;;;;;;;;;;;;;;;;4988068;28;107847;-63
2022/06/28 03:48:51;;;;;;;;;;;;;;;;;;4958113;28;107036;-64
2022/06/28 03:51:44;;;;;;;;;;;;;;;;;;4966194;28;106254;-64
2022/06/28 03:54:20;;;;;;;;;;;;;;;;;;4987740;28;107595;-63
2022/06/28 03:56:54;;;;;;;;;;;;;;;;;;4971330;28;107385;-64
2022/06/28 03:59:21;;;;;;;;;;;;;;;;;;4992190;28;107689;-65
2022/06/28 04:01:47;;;;;;;;;;;;;;;;;;4971314;28;128417;-64
2022/06/28 04:04:13;;;;;;;;;;;;;;;;;;4972054;28;106135;-64
2022/06/28 04:06:43;;;;;;;;;;;;;;;;;;4967638;28;107893;-64
2022/06/28 04:09:09;;;;;;;;;;;;;;;;;;4971189;28;107981;-64
2022/06/28 04:11:36;;;;;;;;;;;;;;;;;;4986636;28;107826;-64
2022/06/28 04:14:02;;;;;;;;;;;;;;;;;;4967316;28;135376;-64
2022/06/28 04:16:28;;;;;;;;;;;;;;;;;;4970922;28;130131;-64
2022/06/28 04:18:57;;;;;;;;;;;;;;;;;;4985686;28;106250;-64
2022/06/28 04:21:25;;;;;;;;;;;;;;;;;;4974864;28;106064;-64
2022/06/28 04:24:02;;;;;;;;;;;;;;;;;;4980235;28;106743;-64
2022/06/28 04:26:29;;;;;;;;;;;;;;;;;;4970198;28;108344;-64
2022/06/28 04:28:56;;;;;;;;;;;;;;;;;;4984348;28;109269;-63
2022/06/28 04:31:25;;;;;;;;;;;;;;;;;;4986536;28;106377;-64
2022/06/28 04:33:51;;;;;;;;;;;;;;;;;;4983035;28;108502;-64
2022/06/28 04:36:23;;;;;;;;;;;;;;;;;;4985134;28;108695;-64
2022/06/28 04:38:49;;;;;;;;;;;;;;;;;;4985952;28;106326;-64
2022/06/28 04:41:23;;;;;;;;;;;;;;;;;;4970700;28;108475;-64
2022/06/28 04:43:55;;;;;;;;;;;;;;;;;;4989360;28;107243;-64
2022/06/28 04:46:26;;;;;;;;;;;;;;;;;;4986621;28;108108;-64
2022/06/28 04:48:54;;;;;;;;;;;;;;;;;;4985257;28;108983;-64
2022/06/28 04:51:27;;;;;;;;;;;;;;;;;;4984442;28;105750;-64
2022/06/28 04:53:54;;;;;;;;;;;;;;;;;;4985768;28;108194;-64
2022/06/28 04:56:23;;;;;;;;;;;;;;;;;;4953040;28;108667;-65
2022/06/28 04:58:49;;;;;;;;;;;;;;;;;;4984622;28;125003;-64
2022/06/28 05:01:16;;;;;;;;;;;;;;;;;;4986059;28;124659;-64
2022/06/28 05:03:45;;;;;;;;;;;;;;;;;;4969593;28;107934;-64
2022/06/28 05:06:40;;;;;;;;;;;;;;;;;;4964131;28;106614;-64
2022/06/28 05:09:08;;;;;;;;;;;;;;;;;;4967772;28;108376;-64
2022/06/28 05:11:54;;;;;;;;;;;;;;;;;;4982524;28;108690;-64
2022/06/28 05:14:27;;;;;;;;;;;;;;;;;;4966108;28;108028;-63
2022/06/28 05:16:53;;;;;;;;;;;;;;;;;;4986296;28;107843;-64
2022/06/28 05:19:21;;;;;;;;;;;;;;;;;;4984327;28;106243;-67
2022/06/28 05:21:47;;;;;;;;;;;;;;;;;;4970080;28;122778;-64
2022/06/28 05:24:13;;;;;;;;;;;;;;;;;;4975734;28;138900;-64
2022/06/28 05:26:42;;;;;;;;;;;;;;;;;;4983539;28;106189;-63
2022/06/28 05:29:16;;;;;;;;;;;;;;;;;;4991596;28;108495;-64
2022/06/28 05:31:43;;;;;;;;;;;;;;;;;;4962785;28;106035;-64
2022/06/28 05:34:09;;;;;;;;;;;;;;;;;;4966537;28;108432;-63
2022/06/28 05:36:37;;;;;;;;;;;;;;;;;;4969683;28;133361;-64
2022/06/28 05:39:03;;;;;;;;;;;;;;;;;;4970090;28;120937;-64
2022/06/28 05:41:31;;;;;;;;;;;;;;;;;;4969790;28;106819;-66
2022/06/28 05:43:57;;;;;;;;;;;;;;;;;;4974558;28;129525;-64
2022/06/28 05:46:25;;;;;;;;;;;;;;;;;;4970166;28;107727;-64
2022/06/28 05:48:51;;;;;;;;;;;;;;;;;;4969459;28;107826;-64
2022/06/28 05:51:17;;;;;;;;;;;;;;;;;;4971900;28;107589;-64
2022/06/28 05:53:44;;;;;;;;;;;;;;;;;;4985035;28;108396;-64
2022/06/28 05:56:10;;;;;;;;;;;;;;;;;;4968941;28;127918;-64
2022/06/28 05:58:36;;;;;;;;;;;;;;;;;;4984161;28;106175;-64
2022/06/28 06:01:04;;;;;;;;;;;;;;;;;;4969384;28;106835;-64
2022/06/28 06:03:32;;;;;;;;;;;;;;;;;;4982078;28;108937;-65
2022/06/28 06:05:59;;;;;;;;;;;;;;;;;;4971064;28;105594;-64
2022/06/28 06:08:25;;;;;;;;;;;;;;;;;;4983722;28;138784;-64
2022/06/28 06:10:51;;;;;;;;;;;;;;;;;;4970809;28;135724;-65
2022/06/28 06:13:17;;;;;;;;;;;;;;;;;;4969288;28;118280;-64
2022/06/28 06:15:44;;;;;;;;;;;;;;;;;;4966044;28;135370;-63
2022/06/28 06:18:10;;;;;;;;;;;;;;;;;;4968299;28;112305;-63
2022/06/28 06:20:36;;;;;;;;;;;;;;;;;;4967834;28;136105;-63
2022/06/28 06:23:03;;;;;;;;;;;;;;;;;;4980687;28;108735;-63
2022/06/28 06:25:53;;;;;;;;;;;;;;;;;;4963233;28;107892;-67
2022/06/28 06:28:19;;;;;;;;;;;;;;;;;;4964771;28;110044;-64
2022/06/28 06:30:45;;;;;;;;;;;;;;;;;;4957332;28;133287;-63
2022/06/28 06:33:15;;;;;;;;;;;;;;;;;;4987908;28;106670;-63
2022/06/28 06:36:01;;;;;;;;;;;;;;;;;;4966775;28;109335;-64
2022/06/28 06:38:27;;;;;;;;;;;;;;;;;;4983993;28;105799;-62
2022/06/28 06:40:55;;;;;;;;;;;;;;;;;;4983148;28;106795;-64
2022/06/28 06:43:22;;;;;;;;;;;;;;;;;;4981895;28;122615;-67
2022/06/28 06:45:54;;;;;;;;;;;;;;;;;;4980811;28;107173;-63
2022/06/28 06:48:21;;;;;;;;;;;;;;;;;;4980378;28;108800;-66
2022/06/28 06:50:47;;;;;;;;;;;;;;;;;;4966651;28;107492;-62
2022/06/28 06:53:14;;;;;;;;;;;;;;;;;;4980194;28;110139;-65
2022/06/28 06:55:41;;;;;;;;;;;;;;;;;;4969990;28;120608;-63
2022/06/28 06:58:08;;;;;;;;;;;;;;;;;;4983512;28;107463;-63
2022/06/28 07:00:34;;;;;;;;;;;;;;;;;;4969967;28;137475;-63
2022/06/28 07:03:04;;;;;;;;;;;;;;;;;;4985152;28;109502;-65
2022/06/28 07:05:31;;;;;;;;;;;;;;;;;;4986785;28;106257;-64
2022/06/28 07:07:57;;;;;;;;;;;;;;;;;;4970805;28;108577;-68
2022/06/28 07:10:30;;;;;;;;;;;;;;;;;;4986134;28;108707;-67
2022/06/28 07:12:56;;;;;;;;;;;;;;;;;;4969953;28;117285;-63
2022/06/28 07:15:22;;;;;;;;;;;;;;;;;;4987577;28;135750;-64
2022/06/28 07:17:50;;;;;;;;;;;;;;;;;;4988505;28;109124;-64
2022/06/28 07:20:16;;;;;;;;;;;;;;;;;;4971623;28;107791;-64
2022/06/28 07:22:43;;;;;;;;;;;;;;;;;;4970763;28;116990;-64
2022/06/28 07:25:16;;;;;;;;;;;;;;;;;;4986510;28;106367;-64
2022/06/28 07:27:42;;;;;;;;;;;;;;;;;;4969868;28;107040;-64
2022/06/28 07:30:08;;;;;;;;;;;;;;;;;;4970878;28;124176;-64
2022/06/28 07:32:35;;;;;;;;;;;;;;;;;;4970713;28;106684;-64
2022/06/28 07:35:02;;;;;;;;;;;;;;;;;;4974425;28;131342;-65
2022/06/28 07:37:29;;;;;;;;;;;;;;;;;;4981542;28;112834;-64
2022/06/28 07:39:56;;;;;;;;;;;;;;;;;;4979142;28;106434;-64
2022/06/28 07:42:28;;;;;;;;;;;;;;;;;;4970421;28;106187;-64
2022/06/28 07:45:14;;;;;;;;;;;;;;;;;;4973061;28;106314;-65
2022/06/28 07:47:41;;;;;;;;;;;;;;;;;;4968531;28;108323;-64
2022/06/28 07:52:53;;;;;;;;;;;;;;;;;;4984938;28;114509;-65
2022/06/28 07:55:26;;;;;;;;;;;;;;;;;;4987562;28;108589;-65
2022/06/28 07:58:18;;;;;;;;;;;;;;;;;;4967630;28;106947;-65
2022/06/28 08:00:45;;;;;;;;;;;;;;;;;;4990428;28;106148;-65
2022/06/28 08:03:16;;;;;;;;;;;;;;;;;;4983577;28;108743;-64
2022/06/28 08:05:42;;;;;;;;;;;;;;;;;;4985584;28;113884;-65
2022/06/28 08:08:09;;;;;;;;;;;;;;;;;;4985840;28;108024;-65
2022/06/28 08:10:35;;;;;;;;;;;;;;;;;;4986773;28;108910;-64
2022/06/28 08:13:05;;;;;;;;;;;;;;;;;;4987896;28;106869;-64
2022/06/28 08:15:31;;;;;;;;;;;;;;;;;;4986987;28;108097;-65
2022/06/28 08:17:57;;;;;;;;;;;;;;;;;;4982009;28;135278;-65
2022/06/28 08:20:24;;;;;;;;;;;;;;;;;;4983356;28;118081;-65
2022/06/28 08:22:50;;;;;;;;;;;;;;;;;;4991194;28;108217;-65
2022/06/28 08:25:16;;;;;;;;;;;;;;;;;;4987292;28;105856;-65
2022/06/28 08:27:46;;;;;;;;;;;;;;;;;;4971833;28;106900;-65
2022/06/28 08:30:12;;;;;;;;;;;;;;;;;;4970671;28;108487;-65
2022/06/28 08:32:38;;;;;;;;;;;;;;;;;;4967744;28;122980;-65
2022/06/28 08:35:06;;;;;;;;;;;;;;;;;;4985913;28;108856;-65
2022/06/28 08:37:32;;;;;;;;;;;;;;;;;;4969402;28;133911;-66
2022/06/28 08:39:59;;;;;;;;;;;;;;;;;;4970814;28;106789;-65
2022/06/28 08:42:25;;;;;;;;;;;;;;;;;;4970685;28;116035;-66
2022/06/28 08:44:51;;;;;;;;;;;;;;;;;;4973456;28;136374;-66
2022/06/28 08:47:18;;;;;;;;;;;;;;;;;;4968663;28;136251;-65
2022/06/28 08:49:44;;;;;;;;;;;;;;;;;;4969028;28;137282;-65
2022/06/28 08:52:10;;;;;;;;;;;;;;;;;;4970524;28;106389;-66
2022/06/28 08:54:36;;;;;;;;;;;;;;;;;;4969635;28;135358;-66
2022/06/28 08:57:05;;;;;;;;;;;;;;;;;;4971108;28;123334;-65
2022/06/28 08:59:31;;;;;;;;;;;;;;;;;;4969384;28;121696;-66
2022/06/28 09:01:57;;;;;;;;;;;;;;;;;;4966893;28;128128;-66
2022/06/28 09:04:24;;;;;;;;;;;;;;;;;;4968857;28;113030;-66
2022/06/28 09:06:50;;;;;;;;;;;;;;;;;;4973841;28;121297;-65
2022/06/28 09:09:16;;;;;;;;;;;;;;;;;;4971102;28;109065;-65
2022/06/28 09:11:43;;;;;;;;;;;;;;;;;;4970547;28;107449;-66
2022/06/28 09:14:10;;;;;;;;;;;;;;;;;;4969843;28;137855;-65
2022/06/28 09:16:36;;;;;;;;;;;;;;;;;;4958400;28;125565;-65
2022/06/28 09:19:03;;;;;;;;;;;;;;;;;;4968402;28;122855;-66
2022/06/28 09:21:29;;;;;;;;;;;;;;;;;;4970068;28;135479;-68
2022/06/28 09:23:57;;;;;;;;;;;;;;;;;;4985820;28;136137;-66
2022/06/28 09:26:23;;;;;;;;;;;;;;;;;;4968711;28;106348;-67
2022/06/28 09:28:50;;;;;;;;;;;;;;;;;;4970644;28;137639;-65
2022/06/28 09:31:16;;;;;;;;;;;;;;;;;;4966586;28;123213;-66
2022/06/28 09:33:42;;;;;;;;;;;;;;;;;;4968869;28;130902;-65
2022/06/28 09:36:09;;;;;;;;;;;;;;;;;;4967929;28;133867;-66
2022/06/28 09:38:35;;;;;;;;;;;;;;;;;;4985582;28;112240;-66
2022/06/28 09:41:01;;;;;;;;;;;;;;;;;;4966928;28;136517;-66
2022/06/28 09:43:27;;;;;;;;;;;;;;;;;;4967179;28;136160;-66
2022/06/28 09:45:54;;;;;;;;;;;;;;;;;;4967412;28;105961;-65
2022/06/28 09:48:20;;;;;;;;;;;;;;;;;;4982188;28;136006;-65
2022/06/28 09:50:46;;;;;;;;;;;;;;;;;;4968375;28;136592;-66
2022/06/28 09:53:16;;;;;;;;;;;;;;;;;;4968581;28;134018;-65
2022/06/28 09:55:42;;;;;;;;;;;;;;;;;;4965870;28;128199;-65
2022/06/28 09:58:08;;;;;;;;;;;;;;;;;;4967203;28;123241;-67
2022/06/28 10:00:37;;;;;;;;;;;;;;;;;;4968439;28;129928;-67
2022/06/28 10:03:04;;;;;;;;;;;;;;;;;;4982494;28;137442;-67
2022/06/28 10:05:30;;;;;;;;;;;;;;;;;;4969007;28;115985;-67
2022/06/28 10:07:56;;;;;;;;;;;;;;;;;;4968233;28;109327;-66
2022/06/28 10:10:24;;;;;;;;;;;;;;;;;;4968290;28;125530;-67
2022/06/28 10:15:35;;;;;;;;;;;;;;;;;;4965700;28;131540;-65
2022/06/28 10:18:01;;;;;;;;;;;;;;;;;;4965321;28;106474;-66
2022/06/28 10:20:28;;;;;;;;;;;;;;;;;;4979159;28;133568;-66
2022/06/28 10:22:54;;;;;;;;;;;;;;;;;;4968677;28;136564;-65
2022/06/28 10:25:22;;;;;;;;;;;;;;;;;;4967245;28;119329;-66
2022/06/28 10:27:48;;;;;;;;;;;;;;;;;;4982903;28;129250;-66
2022/06/28 10:30:15;;;;;;;;;;;;;;;;;;4968739;28;137840;-66
2022/06/28 10:32:41;;;;;;;;;;;;;;;;;;4970997;28;115325;-66
2022/06/28 10:35:08;;;;;;;;;;;;;;;;;;4967877;28;133222;-66
2022/06/28 10:37:34;;;;;;;;;;;;;;;;;;4965828;28;120986;-65
2022/06/28 10:40:00;;;;;;;;;;;;;;;;;;4967846;28;133570;-66
2022/06/28 10:42:26;;;;;;;;;;;;;;;;;;4967871;28;136222;-65
2022/06/28 10:44:53;;;;;;;;;;;;;;;;;;4967553;28;109117;-66
2022/06/28 10:47:19;;;;;;;;;;;;;;;;;;4968664;28;107204;-65
2022/06/28 10:49:46;;;;;;;;;;;;;;;;;;4960760;28;109999;-66
2022/06/28 10:52:14;;;;;;;;;;;;;;;;;;4966953;28;118923;-65
2022/06/28 10:54:40;;;;;;;;;;;;;;;;;;4975308;28;137093;-66
2022/06/28 10:57:06;;;;;;;;;;;;;;;;;;4967493;28;123100;-65
2022/06/28 10:59:33;;;;;;;;;;;;;;;;;;4967201;28;116127;-66
2022/06/28 11:01:59;;;;;;;;;;;;;;;;;;4966487;28;137672;-66
2022/06/28 11:04:26;;;;;;;;;;;;;;;;;;4969225;28;107023;-65
2022/06/28 11:06:53;;;;;;;;;;;;;;;;;;4966428;28;138565;-66
2022/06/28 11:09:19;;;;;;;;;;;;;;;;;;4968448;28;108023;-65
2022/06/28 11:11:46;;;;;;;;;;;;;;;;;;4966783;28;117297;-65
2022/06/28 11:14:12;;;;;;;;;;;;;;;;;;4967886;28;136489;-66
2022/06/28 11:16:38;;;;;;;;;;;;;;;;;;4969328;28;130963;-65
2022/06/28 11:19:05;;;;;;;;;;;;;;;;;;4957822;28;135709;-65
2022/06/28 11:21:31;;;;;;;;;;;;;;;;;;4967954;28;109708;-66
2022/06/28 11:23:57;;;;;;;;;;;;;;;;;;4967096;28;107463;-65
2022/06/28 11:29:09;;;;;;;;;;;;;;;;;;4967758;28;108014;-66
2022/06/28 11:31:35;;;;;;;;;;;;;;;;;;4964094;28;123794;-66
2022/06/28 11:34:01;;;;;;;;;;;;;;;;;;4966757;28;133184;-66
2022/06/28 11:36:30;;;;;;;;;;;;;;;;;;4953897;28;130502;-65
2022/06/28 11:38:57;;;;;;;;;;;;;;;;;;4970990;28;122843;-65
2022/06/28 11:41:24;;;;;;;;;;;;;;;;;;4964491;28;116148;-65
2022/06/28 11:43:50;;;;;;;;;;;;;;;;;;4965074;28;122122;-65
2022/06/28 11:46:16;;;;;;;;;;;;;;;;;;4968906;28;134738;-65
2022/06/28 11:48:43;;;;;;;;;;;;;;;;;;4969174;28;138703;-65
2022/06/28 11:51:09;;;;;;;;;;;;;;;;;;4970895;28;107169;-65
2022/06/28 11:53:36;;;;;;;;;;;;;;;;;;4971721;28;107665;-65
2022/06/28 11:56:02;;;;;;;;;;;;;;;;;;4969837;28;116241;-65
2022/06/28 11:58:29;;;;;;;;;;;;;;;;;;4969727;28;107559;-65
2022/06/28 12:00:55;;;;;;;;;;;;;;;;;;4973860;28;133369;-66
2022/06/28 12:03:21;;;;;;;;;;;;;;;;;;4967389;28;123257;-66
2022/06/28 12:05:48;;;;;;;;;;;;;;;;;;4967401;28;138312;-65
2022/06/28 12:08:14;;;;;;;;;;;;;;;;;;4970894;28;111197;-65
2022/06/28 12:10:40;;;;;;;;;;;;;;;;;;4969038;28;123244;-65
2022/06/28 12:13:06;;;;;;;;;;;;;;;;;;4970489;28;112891;-65
2022/06/28 12:15:33;;;;;;;;;;;;;;;;;;4968587;28;136341;-66
2022/06/28 12:17:59;;;;;;;;;;;;;;;;;;4968885;28;111296;-65
2022/06/28 12:20:25;;;;;;;;;;;;;;;;;;4972958;28;137458;-65
2022/06/28 12:22:52;;;;;;;;;;;;;;;;;;4968454;28;124676;-65
2022/06/28 12:25:18;;;;;;;;;;;;;;;;;;4970374;28;107531;-66
2022/06/28 12:27:44;;;;;;;;;;;;;;;;;;4970110;28;113033;-65
2022/06/28 12:30:10;;;;;;;;;;;;;;;;;;4982408;28;113592;-65
2022/06/28 12:32:37;;;;;;;;;;;;;;;;;;4966356;28;115979;-66
2022/06/28 12:35:12;;;;;;;;;;;;;;;;;;4969678;28;117124;-65
2022/06/28 12:37:39;;;;;;;;;;;;;;;;;;4967439;28;107157;-69
2022/06/28 12:40:05;;;;;;;;;;;;;;;;;;4982769;28;136428;-65
2022/06/28 12:42:31;;;;;;;;;;;;;;;;;;4972848;28;109033;-68
2022/06/28 12:45:00;;;;;;;;;;;;;;;;;;4966227;28;138224;-66
2022/06/28 12:47:27;;;;;;;;;;;;;;;;;;4964502;28;129121;-67
2022/06/28 12:49:53;;;;;;;;;;;;;;;;;;4969763;28;123829;-66
2022/06/28 12:52:19;;;;;;;;;;;;;;;;;;4970462;28;113950;-66
2022/06/28 12:54:46;;;;;;;;;;;;;;;;;;4969112;28;109379;-66
2022/06/28 12:57:12;;;;;;;;;;;;;;;;;;4969575;28;116060;-67
2022/06/28 12:59:38;;;;;;;;;;;;;;;;;;4968132;28;134056;-67
2022/06/28 13:02:04;;;;;;;;;;;;;;;;;;4965489;28;133916;-68
2022/06/28 13:04:31;;;;;;;;;;;;;;;;;;4969117;28;108886;-68
2022/06/28 13:06:57;;;;;;;;;;;;;;;;;;4969058;28;138565;-68
2022/06/28 13:09:23;;;;;;;;;;;;;;;;;;4969176;28;122646;-68
2022/06/28 13:11:50;;;;;;;;;;;;;;;;;;4968063;28;137664;-68
2022/06/28 13:14:16;;;;;;;;;;;;;;;;;;4966876;28;137887;-68
2022/06/28 13:16:47;;;;;;;;;;;;;;;;;;4966459;28;107426;-68
2022/06/28 13:19:15;;;;;;;;;;;;;;;;;;4980928;28;114830;-68
2022/06/28 13:21:43;;;;;;;;;;;;;;;;;;4965067;28;137034;-68
2022/06/28 13:24:10;;;;;;;;;;;;;;;;;;4983498;28;120351;-68
2022/06/28 13:26:38;;;;;;;;;;;;;;;;;;4971446;28;136767;-68
2022/06/28 13:29:04;;;;;;;;;;;;;;;;;;4968730;28;124606;-68
2022/06/28 13:31:30;;;;;;;;;;;;;;;;;;4967665;28;132270;-68
2022/06/28 13:33:57;;;;;;;;;;;;;;;;;;4968578;28;137897;-67
2022/06/28 13:36:23;;;;;;;;;;;;;;;;;;4966751;28;115808;-66
2022/06/28 13:38:49;;;;;;;;;;;;;;;;;;4967561;28;136050;-67
2022/06/28 13:41:27;;;;;;;;;;;;;;;;;;4966995;28;134734;-66
2022/06/28 13:43:54;;;;;;;;;;;;;;;;;;4966858;28;117330;-68
2022/06/28 13:46:21;;;;;;;;;;;;;;;;;;4967625;28;110059;-67
2022/06/28 13:48:47;;;;;;;;;;;;;;;;;;4971192;28;137487;-67
2022/06/28 13:51:14;;;;;;;;;;;;;;;;;;4965116;28;132076;-68
2022/06/28 13:53:41;;;;;;;;;;;;;;;;;;4960440;28;136951;-67
2022/06/28 13:56:07;;;;;;;;;;;;;;;;;;4967782;28;118869;-70
2022/06/28 13:58:33;;;;;;;;;;;;;;;;;;4965289;28;117573;-67
2022/06/28 14:01:01;;;;;;;;;;;;;;;;;;4964443;28;136178;-67
2022/06/28 14:03:27;;;;;;;;;;;;;;;;;;4966732;28;118922;-67
2022/06/28 14:05:54;;;;;;;;;;;;;;;;;;4965827;28;133518;-67
2022/06/28 14:08:20;;;;;;;;;;;;;;;;;;4965702;28;139015;-67
2022/06/28 14:10:46;;;;;;;;;;;;;;;;;;4971689;28;124964;-67
2022/06/28 14:13:14;;;;;;;;;;;;;;;;;;4966125;28;139012;-69
2022/06/28 14:15:40;;;;;;;;;;;;;;;;;;4965774;28;122875;-67
2022/06/28 14:18:07;;;;;;;;;;;;;;;;;;4963142;28;138798;-70
2022/06/28 14:20:33;;;;;;;;;;;;;;;;;;4965732;28;125497;-67
2022/06/28 14:23:00;;;;;;;;;;;;;;;;;;4965174;28;124625;-67
2022/06/28 14:25:26;;;;;;;;;;;;;;;;;;4967069;28;139119;-66
2022/06/28 14:27:52;;;;;;;;;;;;;;;;;;4965596;28;109794;-69
2022/06/28 14:30:27;;;;;;;;;;;;;;;;;;4970453;28;120352;-69
2022/06/28 14:32:53;;;;;;;;;;;;;;;;;;4960770;28;136278;-70
2022/06/28 14:35:25;;;;;;;;;;;;;;;;;;4961217;28;110685;-69
2022/06/28 14:38:11;;;;;;;;;;;;;;;;;;4968739;28;107995;-68
2022/06/28 14:40:37;;;;;;;;;;;;;;;;;;4967870;28;115735;-68
2022/06/28 14:43:04;;;;;;;;;;;;;;;;;;4966265;28;123319;-67
2022/06/28 14:45:31;;;;;;;;;;;;;;;;;;4959002;28;108627;-68
2022/06/28 14:48:16;;;;;;;;;;;;;;;;;;4965658;28;131136;-67
2022/06/28 14:50:42;;;;;;;;;;;;;;;;;;4966159;28;108319;-67
2022/06/28 14:53:12;;;;;;;;;;;;;;;;;;4970236;28;136892;-66
2022/06/28 14:55:44;;;;;;;;;;;;;;;;;;4965347;28;122097;-67
2022/06/28 14:58:11;;;;;;;;;;;;;;;;;;4966560;28;138386;-67
2022/06/28 15:00:37;;;;;;;;;;;;;;;;;;4959928;28;139456;-67
2022/06/28 15:03:03;;;;;;;;;;;;;;;;;;4965145;28;124938;-67
2022/06/28 15:05:30;;;;;;;;;;;;;;;;;;4964077;28;134263;-67
2022/06/28 15:07:56;;;;;;;;;;;;;;;;;;4961402;28;109716;-67
2022/06/28 15:10:23;;;;;;;;;;;;;;;;;;4966672;28;108133;-67
2022/06/28 15:12:49;;;;;;;;;;;;;;;;;;4967166;28;135331;-67
2022/06/28 15:15:15;;;;;;;;;;;;;;;;;;4966898;28;123847;-67
2022/06/28 15:17:41;;;;;;;;;;;;;;;;;;4964632;28;136881;-67
2022/06/28 15:20:08;;;;;;;;;;;;;;;;;;4969528;28;133235;-70
2022/06/28 15:31:00;;;;;;;;;;;;;;;;;;4966175;28;107727;-67
2022/06/28 15:33:26;;;;;;;;;;;;;;;;;;4970007;28;134510;-66
2022/06/28 15:35:54;;;;;;;;;;;;;;;;;;4970141;28;108106;-68
2022/06/28 15:38:20;;;;;;;;;;;;;;;;;;4973418;28;122871;-69
2022/06/28 15:40:52;;;;;;;;;;;;;;;;;;4966331;28;134779;-70
2022/06/28 15:43:19;;;;;;;;;;;;;;;;;;4970011;28;119534;-68
2022/06/28 15:45:45;;;;;;;;;;;;;;;;;;4982400;28;131428;-69
2022/06/28 15:48:11;;;;;;;;;;;;;;;;;;4968711;28;139002;-68
2022/06/28 15:50:38;;;;;;;;;;;;;;;;;;4968007;28;123578;-68
2022/06/28 15:53:04;;;;;;;;;;;;;;;;;;4967114;28;113737;-68
2022/06/28 15:55:30;;;;;;;;;;;;;;;;;;4967185;28;138111;-68
2022/06/28 15:57:57;;;;;;;;;;;;;;;;;;4969314;28;107305;-67
2022/06/28 16:00:23;;;;;;;;;;;;;;;;;;4970645;28;136623;-68
2022/06/28 16:02:49;;;;;;;;;;;;;;;;;;4968385;28;114998;-68
2022/06/28 16:05:15;;;;;;;;;;;;;;;;;;4967466;28;124107;-68
2022/06/28 16:07:42;;;;;;;;;;;;;;;;;;4967942;28;131552;-68
2022/06/28 16:10:08;;;;;;;;;;;;;;;;;;4969652;28;107560;-68
2022/06/28 16:12:54;;;;;;;;;;;;;;;;;;4969224;28;136496;-68
2022/06/28 16:15:21;;;;;;;;;;;;;;;;;;4962769;28;135719;-68
2022/06/28 16:17:47;;;;;;;;;;;;;;;;;;4969262;28;107302;-71
2022/06/28 16:20:13;;;;;;;;;;;;;;;;;;4967567;28;136817;-67
2022/06/28 16:22:48;;;;;;;;;;;;;;;;;;4970689;28;107850;-67
2022/06/28 16:25:14;;;;;;;;;;;;;;;;;;4967212;28;137859;-67
2022/06/28 16:27:41;;;;;;;;;;;;;;;;;;4967543;28;137399;-67
2022/06/28 16:30:07;;;;;;;;;;;;;;;;;;4964476;28;124127;-68
2022/06/28 16:32:33;;;;;;;;;;;;;;;;;;4968263;28;107421;-68
2022/06/28 16:35:00;;;;;;;;;;;;;;;;;;4979186;28;137340;-68
2022/06/28 16:37:26;;;;;;;;;;;;;;;;;;4969358;28;123536;-67
2022/06/28 16:39:52;;;;;;;;;;;;;;;;;;4964130;28;125463;-68
2022/06/28 16:42:19;;;;;;;;;;;;;;;;;;4977912;28;137550;-67
2022/06/28 16:44:49;;;;;;;;;;;;;;;;;;4979694;28;128652;-67
2022/06/28 16:47:15;;;;;;;;;;;;;;;;;;4956118;28;136738;-67
2022/06/28 16:49:41;;;;;;;;;;;;;;;;;;4966408;28;117675;-67
2022/06/28 16:52:08;;;;;;;;;;;;;;;;;;4964305;28;139111;-67
2022/06/28 16:54:34;;;;;;;;;;;;;;;;;;4967315;28;117091;-67
2022/06/28 16:57:00;;;;;;;;;;;;;;;;;;4980704;28;125639;-67
2022/06/28 16:59:27;;;;;;;;;;;;;;;;;;4965803;28;136735;-67